Time;durP1;ratioP1;P1;durP2;ratioP2;P2;SDS_P1;SDS_P2;PMS_P1;PMS_P2;Temp;Humidity;BMP_temperature;BMP_pressure;BME280_temperature;BME280_humidity;BME280_pressure;Samples;Min_cycle;Max_cycle;Signal;HPM_P1;HPM_P2
2023/03/06 00:01:26;;;;;;;6.55;3.42;;;19.80;56.70;;;;;;6307006;22;20007;-79
2023/03/06 00:03:53;;;;;;;9.23;3.50;;;19.80;56.60;;;;;;6306397;22;20022;-79
2023/03/06 00:06:20;;;;;;;9.75;3.30;;;19.80;56.60;;;;;;6306551;22;20038;-81
2023/03/06 00:08:46;;;;;;;7.97;3.38;;;19.80;56.40;;;;;;6279074;22;20105;-77
2023/03/06 00:11:14;;;;;;;14.10;3.67;;;19.80;56.60;;;;;;6279572;22;20015;-79
2023/03/06 00:13:40;;;;;;;12.10;3.60;;;19.80;56.60;;;;;;6306838;22;20006;-77
2023/03/06 00:16:06;;;;;;;12.15;3.67;;;19.80;56.70;;;;;;6253762;22;20011;-77
2023/03/06 00:18:32;;;;;;;11.73;3.70;;;19.80;56.70;;;;;;6278934;22;20011;-78
2023/03/06 00:20:58;;;;;;;11.05;4.00;;;19.80;56.70;;;;;;6307201;22;20070;-79
2023/03/06 00:23:24;;;;;;;14.15;3.83;;;19.80;56.70;;;;;;6306783;22;20023;-79
2023/03/06 00:25:50;;;;;;;14.02;4.50;;;19.80;56.70;;;;;;6279042;22;20007;-79
2023/03/06 00:28:16;;;;;;;17.77;4.68;;;19.80;56.70;;;;;;6295529;22;20441;-74
2023/03/06 00:30:43;;;;;;;10.68;3.63;;;19.80;57.30;;;;;;6271968;22;19999;-74
2023/03/06 00:33:09;;;;;;;12.27;4.07;;;19.90;56.80;;;;;;6274978;22;20026;-74
2023/03/06 00:35:36;;;;;;;9.48;3.95;;;19.80;56.70;;;;;;6274256;22;20038;-74
2023/03/06 00:38:03;;;;;;;12.00;4.13;;;19.90;56.80;;;;;;6273695;22;20011;-74
2023/03/06 00:40:31;;;;;;;13.75;4.40;;;19.90;56.90;;;;;;6248911;22;20003;-74
2023/03/06 00:42:58;;;;;;;20.73;5.53;;;19.90;57.00;;;;;;6249278;22;20019;-74
2023/03/06 00:45:24;;;;;;;18.00;4.65;;;19.90;57.10;;;;;;6274023;22;20011;-75
2023/03/06 00:47:50;;;;;;;22.75;5.40;;;19.90;57.10;;;;;;6273759;22;20015;-74
2023/03/06 00:50:16;;;;;;;17.30;4.72;;;19.90;57.10;;;;;;6273993;22;20004;-74
2023/03/06 00:52:41;;;;;;;17.80;5.13;;;19.90;57.00;;;;;;6248473;22;20003;-75
2023/03/06 00:55:08;;;;;;;14.50;4.95;;;19.90;57.00;;;;;;6274025;22;20000;-75
2023/03/06 00:57:34;;;;;;;19.70;5.28;;;19.90;57.00;;;;;;6273671;22;20003;-74
2023/03/06 00:59:59;;;;;;;20.40;4.97;;;19.90;57.10;;;;;;6248349;22;20011;-74
2023/03/06 01:02:25;;;;;;;12.52;4.78;;;19.90;57.00;;;;;;6274134;22;20012;-74
2023/03/06 01:04:53;;;;;;;13.73;5.18;;;19.90;57.10;;;;;;6273960;22;20043;-74
2023/03/06 01:07:19;;;;;;;17.00;5.10;;;19.90;57.00;;;;;;6275320;22;20000;-74
2023/03/06 01:09:45;;;;;;;14.50;4.82;;;19.90;57.10;;;;;;6275264;22;20004;-74
2023/03/06 01:12:10;;;;;;;12.75;4.50;;;19.90;57.10;;;;;;6273932;22;20004;-74
2023/03/06 01:14:36;;;;;;;14.98;5.30;;;19.90;57.00;;;;;;6274181;22;20011;-74
2023/03/06 01:17:02;;;;;;;15.10;5.13;;;19.90;57.00;;;;;;6273828;22;20015;-74
2023/03/06 01:19:28;;;;;;;16.90;4.55;;;19.90;57.00;;;;;;6273371;22;20441;-74
2023/03/06 01:21:54;;;;;;;13.70;4.45;;;19.90;57.00;;;;;;6275461;22;20010;-74
2023/03/06 01:24:19;;;;;;;17.80;4.68;;;19.90;57.00;;;;;;6273997;22;20003;-74
2023/03/06 01:26:46;;;;;;;12.00;4.28;;;19.90;57.50;;;;;;6275242;22;20010;-74
2023/03/06 01:29:11;;;;;;;10.93;4.60;;;19.90;57.10;;;;;;6274521;22;20007;-74
2023/03/06 01:31:37;;;;;;;10.70;4.30;;;19.90;57.00;;;;;;6248254;22;20027;-74
2023/03/06 01:34:03;;;;;;;20.10;4.65;;;19.90;57.00;;;;;;6275261;22;20070;-74
2023/03/06 01:36:28;;;;;;;13.90;4.82;;;19.90;57.00;;;;;;6248035;22;20010;-75
2023/03/06 01:38:54;;;;;;;15.90;5.75;;;19.90;57.10;;;;;;6274707;22;20035;-75
2023/03/06 01:41:20;;;;;;;17.15;5.65;;;19.90;57.20;;;;;;6248001;22;20438;-74
2023/03/06 01:43:47;;;;;;;19.13;5.32;;;19.90;57.40;;;;;;6275247;22;20003;-75
2023/03/06 01:46:29;;;;;;;16.40;5.05;;;19.90;57.50;;;;;;6274928;22;20384;-75
2023/03/06 01:48:57;;;;;;;13.38;5.30;;;19.90;57.60;;;;;;6247948;22;20011;-74
2023/03/06 01:51:28;;;;;;;13.32;4.97;;;19.90;57.60;;;;;;6247847;22;20011;-73
2023/03/06 01:53:56;;;;;;;18.73;5.63;;;20.00;57.60;;;;;;6248111;22;20000;-74
2023/03/06 01:56:22;;;;;;;14.30;4.72;;;19.90;57.60;;;;;;6247885;22;20007;-74
2023/03/06 01:58:50;;;;;;;17.42;4.85;;;19.90;57.70;;;;;;6247468;22;20004;-74
2023/03/06 02:01:17;;;;;;;11.95;4.70;;;19.90;57.70;;;;;;6247926;22;20010;-73
2023/03/06 02:03:46;;;;;;;15.50;5.20;;;20.00;57.80;;;;;;6247986;22;20031;-74
2023/03/06 02:06:12;;;;;;;14.75;5.10;;;19.90;57.70;;;;;;6247812;22;20010;-74
2023/03/06 02:08:39;;;;;;;14.95;5.22;;;19.90;57.70;;;;;;6247373;22;19999;-73
2023/03/06 02:11:12;;;;;;;14.63;4.47;;;19.90;57.80;;;;;;6222641;22;20087;-74
2023/03/06 02:13:40;;;;;;;15.75;4.90;;;19.90;57.80;;;;;;6274638;22;20006;-74
2023/03/06 02:16:08;;;;;;;14.00;4.90;;;19.90;57.80;;;;;;6247363;22;20038;-73
2023/03/06 02:18:35;;;;;;;13.63;4.80;;;20.00;57.80;;;;;;6247251;22;20039;-73
2023/03/06 02:21:10;;;;;;;14.07;4.97;;;20.00;57.80;;;;;;6222165;22;20019;-73
2023/03/06 02:23:44;;;;;;;13.57;4.13;;;19.90;57.70;;;;;;6247894;22;20086;-73
2023/03/06 02:26:12;;;;;;;10.75;4.22;;;20.00;57.90;;;;;;6247864;22;20341;-73
2023/03/06 02:28:38;;;;;;;13.70;4.97;;;19.90;57.80;;;;;;6274121;22;20452;-74
2023/03/06 02:31:05;;;;;;;16.00;5.15;;;19.90;57.80;;;;;;6247661;22;20020;-73
2023/03/06 02:33:32;;;;;;;11.85;4.75;;;20.00;58.00;;;;;;6247550;22;20426;-74
2023/03/06 02:36:02;;;;;;;11.77;4.22;;;20.00;58.00;;;;;;6222084;22;20011;-74
2023/03/06 02:38:47;;;;;;;16.67;4.72;;;20.00;58.10;;;;;;6247185;22;20016;-74
2023/03/06 02:41:14;;;;;;;13.68;4.47;;;19.90;58.00;;;;;;6247530;22;20010;-73
2023/03/06 02:43:42;;;;;;;11.82;4.32;;;20.00;58.10;;;;;;6222329;22;20022;-73
2023/03/06 02:46:08;;;;;;;12.00;4.53;;;19.90;58.10;;;;;;6247519;22;20078;-73
2023/03/06 02:48:34;;;;;;;16.20;4.50;;;20.00;58.10;;;;;;6274498;22;20038;-73
2023/03/06 02:51:00;;;;;;;11.85;3.80;;;19.90;58.10;;;;;;6247484;22;20060;-74
2023/03/06 02:53:26;;;;;;;10.52;4.20;;;19.90;58.10;;;;;;6247411;22;20010;-74
2023/03/06 02:55:52;;;;;;;12.05;4.95;;;20.00;58.20;;;;;;6247362;22;20007;-73
2023/03/06 02:58:19;;;;;;;9.30;3.83;;;19.90;58.20;;;;;;6246889;22;20038;-74
2023/03/06 03:00:46;;;;;;;10.27;4.32;;;19.90;58.10;;;;;;6247337;22;20007;-74
2023/03/06 03:03:12;;;;;;;11.32;4.22;;;19.90;58.10;;;;;;6274464;22;20031;-74
2023/03/06 03:05:38;;;;;;;12.35;4.43;;;19.90;58.10;;;;;;6247355;22;20003;-74
2023/03/06 03:08:12;;;;;;;10.73;3.92;;;19.90;58.00;;;;;;6247011;22;20363;-74
2023/03/06 03:10:37;;;;;;;12.40;4.28;;;19.90;58.10;;;;;;6247411;22;20035;-74
2023/03/06 03:13:03;;;;;;;14.20;3.97;;;19.90;58.10;;;;;;6247314;22;20053;-74
2023/03/06 03:15:30;;;;;;;12.65;4.57;;;19.90;58.10;;;;;;6247239;22;20019;-74
2023/03/06 03:17:56;;;;;;;13.32;4.47;;;19.90;58.80;;;;;;6247056;22;20034;-74
2023/03/06 03:20:22;;;;;;;13.05;4.57;;;19.90;58.20;;;;;;6247272;22;20000;-74
2023/03/06 03:22:51;;;;;;;9.82;3.83;;;19.90;58.20;;;;;;6247436;22;20071;-74
2023/03/06 03:25:18;;;;;;;11.63;4.28;;;19.90;58.20;;;;;;6247710;22;20376;-74
2023/03/06 03:27:44;;;;;;;10.93;4.10;;;19.90;58.20;;;;;;6222033;22;20079;-74
2023/03/06 03:30:12;;;;;;;12.00;4.10;;;19.90;58.20;;;;;;6249478;22;20018;-74
2023/03/06 03:32:38;;;;;;;10.10;3.92;;;19.90;58.30;;;;;;6249396;22;20011;-74
2023/03/06 03:35:06;;;;;;;12.20;3.97;;;19.90;58.30;;;;;;6224058;22;20007;-74
2023/03/06 03:37:34;;;;;;;9.88;3.42;;;19.90;58.20;;;;;;6223211;22;20046;-74
2023/03/06 03:40:01;;;;;;;10.32;3.95;;;19.90;58.20;;;;;;6249396;22;20341;-74
2023/03/06 03:42:29;;;;;;;16.05;3.80;;;19.90;58.10;;;;;;6249048;22;20499;-74
2023/03/06 03:44:55;;;;;;;9.13;3.50;;;19.90;58.20;;;;;;6249309;22;20008;-73
2023/03/06 03:47:21;;;;;;;11.57;4.28;;;19.90;58.20;;;;;;6248745;22;20058;-74
2023/03/06 03:49:47;;;;;;;8.90;3.38;;;19.90;58.30;;;;;;6248943;22;20094;-73
2023/03/06 03:52:14;;;;;;;10.73;3.72;;;19.90;58.20;;;;;;6249356;22;20038;-73
2023/03/06 03:54:40;;;;;;;10.05;3.65;;;19.90;58.30;;;;;;6198904;22;20511;-73
2023/03/06 03:57:06;;;;;;;9.23;3.67;;;19.90;58.30;;;;;;6248940;22;20004;-74
2023/03/06 03:59:35;;;;;;;11.05;3.72;;;19.90;58.30;;;;;;6248674;22;20008;-74
2023/03/06 04:02:20;;;;;;;9.82;3.65;;;19.90;58.30;;;;;;6249022;22;20008;-74
2023/03/06 04:04:54;;;;;;;9.90;3.25;;;19.90;58.40;;;;;;6249093;22;20012;-74
2023/03/06 04:07:20;;;;;;;11.30;3.70;;;19.90;58.40;;;;;;6248728;22;20388;-74
2023/03/06 04:09:46;;;;;;;9.63;3.42;;;19.90;58.40;;;;;;6248898;22;20023;-73
2023/03/06 04:12:13;;;;;;;11.98;3.38;;;19.90;58.50;;;;;;6223549;22;20004;-74
2023/03/06 04:14:39;;;;;;;10.20;3.60;;;19.90;58.50;;;;;;6248931;22;20054;-74
2023/03/06 04:17:05;;;;;;;7.28;3.17;;;19.90;58.50;;;;;;6248878;22;20075;-73
2023/03/06 04:19:32;;;;;;;9.00;3.75;;;19.90;58.30;;;;;;6223427;22;20030;-74
2023/03/06 04:22:00;;;;;;;11.35;3.90;;;19.90;58.60;;;;;;6248923;22;20038;-74
2023/03/06 04:24:26;;;;;;;7.90;3.30;;;19.90;58.60;;;;;;6248745;22;20468;-74
2023/03/06 04:26:52;;;;;;;9.85;3.40;;;19.90;58.60;;;;;;6248698;22;20008;-73
2023/03/06 04:29:18;;;;;;;7.80;3.40;;;19.90;58.50;;;;;;6265727;22;20000;-74
2023/03/06 04:31:45;;;;;;;10.57;3.50;;;19.90;58.60;;;;;;6223573;22;20345;-73
2023/03/06 04:34:11;;;;;;;11.70;3.90;;;19.90;58.60;;;;;;6274780;22;20396;-73
2023/03/06 04:36:36;;;;;;;6.72;2.90;;;19.90;58.70;;;;;;6248748;22;20050;-74
2023/03/06 04:39:06;;;;;;;7.50;3.25;;;19.90;58.00;;;;;;6273570;22;20034;-74
2023/03/06 04:41:34;;;;;;;7.65;3.40;;;19.90;58.70;;;;;;6274210;22;20014;-74
2023/03/06 04:43:59;;;;;;;8.00;3.33;;;19.90;58.70;;;;;;6274237;22;20007;-74
2023/03/06 04:46:25;;;;;;;11.00;3.28;;;19.90;58.80;;;;;;6248380;22;20016;-74
2023/03/06 04:48:51;;;;;;;10.80;3.45;;;19.90;58.80;;;;;;6273687;22;20353;-74
2023/03/06 04:51:17;;;;;;;9.25;3.45;;;19.90;58.90;;;;;;6275626;22;20004;-74
2023/03/06 04:53:42;;;;;;;11.95;3.58;;;19.90;58.80;;;;;;6275797;22;20007;-74
2023/03/06 04:56:08;;;;;;;8.50;3.22;;;19.90;58.90;;;;;;6275740;22;20366;-74
2023/03/06 04:58:34;;;;;;;7.55;2.90;;;19.90;58.90;;;;;;6275185;22;20342;-74
2023/03/06 05:01:01;;;;;;;8.52;3.03;;;19.90;58.80;;;;;;6274142;22;20061;-74
2023/03/06 05:03:26;;;;;;;10.27;3.42;;;19.90;58.80;;;;;;6275547;22;20008;-74
2023/03/06 05:05:52;;;;;;;8.30;3.30;;;19.90;58.70;;;;;;6273814;22;20754;-74
2023/03/06 05:08:18;;;;;;;7.90;3.22;;;19.90;58.70;;;;;;6273148;22;20007;-74
2023/03/06 05:10:44;;;;;;;8.45;3.45;;;19.90;58.70;;;;;;6274301;22;19996;-74
2023/03/06 05:13:10;;;;;;;7.25;2.78;;;19.90;58.60;;;;;;6274835;22;20038;-74
2023/03/06 05:15:39;;;;;;;6.47;2.80;;;19.90;58.60;;;;;;6275501;22;20000;-73
2023/03/06 05:18:04;;;;;;;7.53;3.00;;;19.90;58.60;;;;;;6274714;22;20009;-73
2023/03/06 05:20:31;;;;;;;6.80;3.00;;;19.90;58.70;;;;;;6273539;22;20033;-73
2023/03/06 05:22:56;;;;;;;7.18;3.20;;;19.90;58.70;;;;;;6273640;22;20086;-73
2023/03/06 05:25:22;;;;;;;8.68;3.45;;;19.90;58.70;;;;;;6273865;22;20096;-73
2023/03/06 05:27:48;;;;;;;8.27;3.13;;;19.90;58.80;;;;;;6274803;22;20043;-73
2023/03/06 05:30:14;;;;;;;6.80;2.90;;;19.90;58.70;;;;;;6248334;22;20004;-73
2023/03/06 05:32:40;;;;;;;7.65;3.10;;;19.90;58.70;;;;;;6275073;22;20429;-73
2023/03/06 05:35:06;;;;;;;8.35;2.90;;;19.90;58.70;;;;;;6275246;22;20007;-73
2023/03/06 05:37:32;;;;;;;8.30;2.88;;;19.90;58.70;;;;;;6274674;22;20007;-73
2023/03/06 05:39:58;;;;;;;7.32;3.10;;;19.90;59.30;;;;;;6247973;22;20008;-73
2023/03/06 05:42:24;;;;;;;6.63;2.80;;;19.90;58.70;;;;;;6247883;22;20012;-72
2023/03/06 05:44:50;;;;;;;9.07;3.08;;;19.90;58.70;;;;;;6274671;22;20007;-73
2023/03/06 05:47:16;;;;;;;5.40;2.70;;;19.90;58.70;;;;;;6274645;22;20007;-73
2023/03/06 05:49:42;;;;;;;7.45;2.83;;;19.90;58.80;;;;;;6247529;22;20030;-73
2023/03/06 05:52:08;;;;;;;5.18;2.83;;;19.90;58.80;;;;;;6274747;22;20006;-73
2023/03/06 05:54:35;;;;;;;6.78;2.97;;;19.90;58.80;;;;;;6274965;22;20038;-73
2023/03/06 05:57:03;;;;;;;9.10;3.00;;;19.90;58.90;;;;;;6247698;22;20523;-73
2023/03/06 05:59:28;;;;;;;6.95;3.00;;;19.90;58.90;;;;;;6247929;22;20003;-73
2023/03/06 06:01:55;;;;;;;6.38;2.85;;;19.90;58.90;;;;;;6247789;22;20003;-73
2023/03/06 06:04:22;;;;;;;7.30;2.95;;;19.90;59.00;;;;;;6274908;22;20085;-73
2023/03/06 06:06:53;;;;;;;6.50;3.13;;;19.90;59.00;;;;;;6274921;22;20085;-72
2023/03/06 06:09:21;;;;;;;6.10;2.60;;;19.90;59.00;;;;;;6274443;22;20000;-72
2023/03/06 06:11:50;;;;;;;7.43;3.20;;;19.90;59.00;;;;;;6274802;22;20003;-72
2023/03/06 06:14:16;;;;;;;7.10;2.72;;;19.90;59.10;;;;;;6274735;22;20003;-73
2023/03/06 06:16:42;;;;;;;9.95;2.90;;;19.90;59.00;;;;;;6247869;22;20065;-72
2023/03/06 06:19:07;;;;;;;6.47;2.65;;;19.90;59.00;;;;;;6274408;22;20014;-72
2023/03/06 06:21:33;;;;;;;8.27;3.00;;;19.90;58.90;;;;;;6275242;22;20031;-72
2023/03/06 06:23:59;;;;;;;4.72;2.53;;;19.90;58.80;;;;;;6247612;22;20449;-72
2023/03/06 06:26:25;;;;;;;6.72;3.22;;;19.90;58.80;;;;;;6274816;22;20011;-72
2023/03/06 06:28:51;;;;;;;10.93;3.05;;;19.90;58.70;;;;;;6258703;22;20015;-72
2023/03/06 06:31:16;;;;;;;8.93;2.95;;;19.90;58.80;;;;;;6248036;22;20053;-72
2023/03/06 06:33:42;;;;;;;7.53;3.28;;;19.90;58.80;;;;;;6273328;22;20004;-72
2023/03/06 06:36:18;;;;;;;7.72;3.33;;;19.90;58.80;;;;;;6274928;22;20057;-72
2023/03/06 06:38:44;;;;;;;9.38;3.30;;;19.90;58.80;;;;;;6274234;22;20061;-72
2023/03/06 06:41:10;;;;;;;7.68;3.17;;;19.90;59.10;;;;;;6274986;22;20441;-72
2023/03/06 06:43:36;;;;;;;6.97;3.00;;;19.90;58.80;;;;;;6274444;22;20015;-72
2023/03/06 06:46:01;;;;;;;8.32;3.03;;;19.90;58.70;;;;;;6274529;22;20510;-72
2023/03/06 06:48:27;;;;;;;8.50;3.22;;;19.90;58.70;;;;;;6273991;22;20438;-72
2023/03/06 06:50:57;;;;;;;7.07;3.05;;;19.90;58.70;;;;;;6274487;22;19995;-72
2023/03/06 06:53:23;;;;;;;5.78;3.33;;;19.90;58.80;;;;;;6272681;22;20011;-72
2023/03/06 06:55:49;;;;;;;7.97;3.63;;;19.90;58.80;;;;;;6273063;22;20417;-72
2023/03/06 06:58:15;;;;;;;6.47;3.08;;;19.90;58.90;;;;;;6274110;22;20091;-72
2023/03/06 07:00:41;;;;;;;5.32;2.90;;;19.90;59.00;;;;;;6274434;22;20004;-72
2023/03/06 07:03:09;;;;;;;5.85;2.97;;;19.90;59.00;;;;;;6272980;22;20007;-72
2023/03/06 07:05:35;;;;;;;6.60;3.00;;;19.90;59.00;;;;;;6274979;22;20083;-72
2023/03/06 07:08:00;;;;;;;6.05;3.00;;;19.90;59.10;;;;;;6274198;22;20054;-72
2023/03/06 07:10:26;;;;;;;5.32;2.83;;;19.90;59.10;;;;;;6274655;22;19999;-73
2023/03/06 07:12:53;;;;;;;6.60;3.20;;;19.90;59.10;;;;;;6274325;22;20049;-73
2023/03/06 07:15:19;;;;;;;6.53;3.08;;;20.00;59.10;;;;;;6273028;22;20424;-73
2023/03/06 07:17:44;;;;;;;7.47;3.25;;;19.90;59.10;;;;;;6273998;22;20007;-73
2023/03/06 07:20:11;;;;;;;5.38;2.70;;;19.90;59.10;;;;;;6272937;22;20015;-73
2023/03/06 07:22:37;;;;;;;7.00;3.25;;;19.90;59.20;;;;;;6274339;22;20014;-73
2023/03/06 07:25:04;;;;;;;5.65;2.92;;;19.90;59.10;;;;;;6274183;22;20000;-72
2023/03/06 07:27:30;;;;;;;6.80;3.25;;;19.90;59.60;;;;;;6274244;22;20007;-73
2023/03/06 07:29:56;;;;;;;5.47;2.75;;;19.90;59.10;;;;;;6274517;22;20014;-73
2023/03/06 07:32:22;;;;;;;8.40;3.13;;;19.90;59.20;;;;;;6272712;22;19996;-73
2023/03/06 07:34:48;;;;;;;7.05;2.85;;;19.90;59.20;;;;;;6273576;22;20080;-73
2023/03/06 07:37:14;;;;;;;7.50;3.17;;;19.90;59.20;;;;;;6274407;22;20004;-73
2023/03/06 07:39:39;;;;;;;7.30;3.20;;;19.90;59.30;;;;;;6273838;22;20525;-73
2023/03/06 07:42:06;;;;;;;7.28;3.25;;;19.90;59.30;;;;;;6274509;22;20014;-73
2023/03/06 07:44:36;;;;;;;7.38;3.65;;;19.90;59.30;;;;;;6247082;22;20008;-73
2023/03/06 07:47:03;;;;;;;5.93;2.83;;;19.90;59.30;;;;;;6274021;22;20471;-73
2023/03/06 07:49:29;;;;;;;8.52;3.47;;;19.90;59.30;;;;;;6273714;22;20004;-72
2023/03/06 07:51:57;;;;;;;5.47;2.88;;;19.90;59.30;;;;;;6274186;22;20054;-73
2023/03/06 07:54:23;;;;;;;6.78;3.03;;;20.00;59.40;;;;;;6274132;22;20007;-73
2023/03/06 07:56:50;;;;;;;11.00;3.70;;;19.90;59.40;;;;;;6274278;22;20015;-73
2023/03/06 07:59:15;;;;;;;7.15;3.05;;;19.90;59.30;;;;;;6273845;22;20004;-72
2023/03/06 08:01:41;;;;;;;5.28;2.78;;;20.00;59.40;;;;;;6274523;22;20054;-73
2023/03/06 08:04:07;;;;;;;6.85;2.92;;;19.90;59.30;;;;;;6272566;22;20010;-73
2023/03/06 08:06:33;;;;;;;4.68;2.70;;;19.90;59.40;;;;;;6274053;22;20489;-72
2023/03/06 08:08:59;;;;;;;6.28;2.80;;;19.90;59.30;;;;;;6273611;22;20433;-72
2023/03/06 08:11:28;;;;;;;6.55;3.10;;;19.90;59.30;;;;;;6274247;22;20004;-73
2023/03/06 08:13:55;;;;;;;5.68;2.85;;;19.90;59.40;;;;;;6274791;22;20057;-72
2023/03/06 08:16:24;;;;;;;5.25;2.70;;;19.90;59.40;;;;;;6276029;22;20018;-72
2023/03/06 08:18:50;;;;;;;4.72;2.92;;;19.90;59.30;;;;;;6275580;22;20323;-72
2023/03/06 08:21:18;;;;;;;5.53;3.00;;;19.90;59.40;;;;;;6276011;22;20437;-72
2023/03/06 08:23:45;;;;;;;5.80;2.80;;;19.90;59.40;;;;;;6275729;22;20011;-73
2023/03/06 08:26:19;;;;;;;5.55;3.10;;;19.90;59.50;;;;;;6274277;22;20441;-72
2023/03/06 08:28:45;;;;;;;6.78;3.03;;;19.90;59.60;;;;;;6275157;22;20011;-72
2023/03/06 08:31:24;;;;;;;5.13;2.72;;;19.90;59.50;;;;;;6275876;22;20004;-72
2023/03/06 08:33:50;;;;;;;5.30;3.42;;;19.90;59.40;;;;;;6275668;22;20011;-72
2023/03/06 08:36:16;;;;;;;6.93;3.10;;;19.90;59.50;;;;;;6275701;22;20071;-73
2023/03/06 08:38:42;;;;;;;6.55;3.30;;;19.90;59.40;;;;;;6275309;22;20085;-73
2023/03/06 08:41:08;;;;;;;5.15;2.72;;;19.90;59.40;;;;;;6275658;22;20007;-73
2023/03/06 08:43:34;;;;;;;5.90;3.00;;;19.90;59.40;;;;;;6275748;22;20008;-73
2023/03/06 08:46:00;;;;;;;18.00;3.88;;;19.90;59.30;;;;;;6248433;22;20516;-73
2023/03/06 08:48:26;;;;;;;4.78;2.70;;;19.90;59.40;;;;;;6275235;22;20011;-73
2023/03/06 08:50:53;;;;;;;7.90;3.15;;;19.90;59.60;;;;;;6248326;22;20004;-73
2023/03/06 08:53:18;;;;;;;9.25;3.15;;;19.90;59.60;;;;;;6275679;22;20038;-73
2023/03/06 08:55:44;;;;;;;6.55;3.10;;;19.90;59.60;;;;;;6275385;22;20000;-73
2023/03/06 08:58:10;;;;;;;5.95;2.70;;;19.90;59.60;;;;;;6274998;22;20000;-73
2023/03/06 09:00:36;;;;;;;6.93;3.35;;;19.90;59.60;;;;;;6275215;22;20049;-73
2023/03/06 09:03:03;;;;;;;5.72;3.08;;;20.00;59.70;;;;;;6275701;22;20003;-73
2023/03/06 09:05:29;;;;;;;7.20;2.78;;;19.90;59.50;;;;;;6248147;22;20085;-73
2023/03/06 09:07:55;;;;;;;5.75;2.92;;;19.90;59.40;;;;;;6274930;22;20004;-73
2023/03/06 09:10:23;;;;;;;7.22;3.20;;;20.00;59.70;;;;;;6275061;22;20442;-73
2023/03/06 09:12:49;;;;;;;5.40;3.00;;;20.00;59.70;;;;;;6275374;22;20053;-73
2023/03/06 09:15:15;;;;;;;7.57;2.97;;;20.00;59.60;;;;;;6222844;22;20438;-74
2023/03/06 09:17:41;;;;;;;5.18;2.90;;;19.90;59.40;;;;;;6274967;22;20010;-73
2023/03/06 09:20:11;;;;;;;5.63;2.90;;;20.00;59.60;;;;;;6275111;22;20007;-73
2023/03/06 09:22:37;;;;;;;7.22;3.05;;;19.90;59.30;;;;;;6275313;22;20521;-74
2023/03/06 09:25:04;;;;;;;8.25;3.45;;;19.90;59.50;;;;;;6275192;22;20008;-74
2023/03/06 09:27:30;;;;;;;7.10;3.20;;;19.90;59.60;;;;;;6247728;22;20007;-73
2023/03/06 09:29:56;;;;;;;7.43;3.15;;;19.90;59.50;;;;;;6274935;22;20057;-74
2023/03/06 09:32:22;;;;;;;5.53;3.00;;;19.90;59.40;;;;;;6248340;22;19999;-73
2023/03/06 09:34:48;;;;;;;7.93;3.00;;;19.90;59.40;;;;;;6275005;22;20003;-73
2023/03/06 09:37:14;;;;;;;6.07;3.05;;;19.90;59.40;;;;;;6275188;22;20109;-73
2023/03/06 09:39:40;;;;;;;5.10;3.00;;;20.00;59.60;;;;;;6274692;22;20086;-73
2023/03/06 09:42:07;;;;;;;5.75;3.20;;;19.90;59.40;;;;;;6275233;22;20044;-73
2023/03/06 09:44:35;;;;;;;6.07;3.00;;;19.90;59.50;;;;;;6248225;22;20008;-73
2023/03/06 09:47:10;;;;;;;7.60;3.17;;;20.00;59.50;;;;;;6274721;22;20008;-73
2023/03/06 09:49:38;;;;;;;5.13;2.88;;;19.90;59.60;;;;;;6222223;22;20008;-73
2023/03/06 09:52:27;;;;;;;4.80;2.63;;;19.90;59.70;;;;;;6274906;22;20000;-73
2023/03/06 09:54:55;;;;;;;7.63;3.05;;;19.90;59.70;;;;;;6247873;22;20004;-73
2023/03/06 09:57:25;;;;;;;36.25;4.57;;;20.00;59.70;;;;;;6274919;22;20071;-73
2023/03/06 09:59:54;;;;;;;10.38;3.33;;;20.00;60.50;;;;;;6275053;22;20012;-73
2023/03/06 10:02:40;;;;;;;12.40;3.50;;;20.00;60.60;;;;;;6248108;22;20015;-73
2023/03/06 10:05:20;;;;;;;10.52;3.72;;;20.00;61.20;;;;;;6275207;22;20433;-73
2023/03/06 10:07:53;;;;;;;15.48;3.80;;;20.00;61.90;;;;;;6222379;22;20011;-72
2023/03/06 10:10:23;;;;;;;32.05;3.78;;;20.10;62.10;;;;;;6248028;22;20057;-73
2023/03/06 10:12:58;;;;;;;14.38;4.18;;;20.10;62.90;;;;;;6274967;22;20122;-72
2023/03/06 10:15:37;;;;;;;13.15;3.97;;;20.10;63.60;;;;;;6274945;22;20010;-73
2023/03/06 10:18:04;;;;;;;6.43;3.50;;;20.10;63.40;;;;;;6275182;22;20376;-73
2023/03/06 10:20:47;;;;;;;6.00;2.85;;;20.10;62.90;;;;;;6275173;22;20015;-75
2023/03/06 10:23:23;;;;;;;11.60;3.50;;;20.10;61.20;;;;;;6248280;22;20011;-74
2023/03/06 10:26:01;;;;;;;9.63;3.22;;;20.00;61.40;;;;;;6274945;22;20452;-74
2023/03/06 10:28:34;;;;;;;9.82;3.35;;;20.00;61.30;;;;;;6274639;22;20014;-73
2023/03/06 10:31:10;;;;;;;12.98;3.42;;;20.10;61.20;;;;;;6247929;22;20075;-76
2023/03/06 10:34:14;;;;;;;11.43;3.60;;;20.10;61.20;;;;;;6248113;22;20006;-73
2023/03/06 10:36:39;;;;;;;11.88;3.30;;;20.10;60.90;;;;;;6274603;22;20011;-73
2023/03/06 10:39:14;;;;;;;16.15;2.90;;;20.10;61.20;;;;;;6273737;22;20109;-73
2023/03/06 10:41:39;;;;;;;6.20;2.30;;;19.70;51.50;;;;;;6275169;22;19999;-74
2023/03/06 10:44:06;;;;;;;7.80;2.47;;;19.10;44.10;;;;;;6246856;22;20034;-73
2023/03/06 10:46:35;;;;;;;8.18;2.00;;;19.00;46.20;;;;;;6247173;22;20064;-74
2023/03/06 10:49:05;;;;;;;6.30;2.20;;;19.10;48.70;;;;;;6274298;22;20004;-73
2023/03/06 10:51:32;;;;;;;6.97;2.20;;;19.20;47.30;;;;;;6274714;22;20345;-74
2023/03/06 10:54:00;;;;;;;4.75;2.08;;;19.30;47.80;;;;;;6248030;22;20495;-75
2023/03/06 10:56:38;;;;;;;6.25;2.10;;;19.40;48.80;;;;;;6247672;22;20073;-75
2023/03/06 10:59:12;;;;;;;16.02;4.57;;;19.40;48.80;;;;;;6274647;22;20083;-76
2023/03/06 11:01:40;;;;;;;10.45;3.97;;;19.50;48.50;;;;;;6274661;22;20035;-75
2023/03/06 11:04:22;;;;;;;8.77;3.03;;;19.50;49.60;;;;;;6274301;22;20035;-74
2023/03/06 11:07:03;;;;;;;7.55;2.78;;;19.60;50.40;;;;;;6274871;22;20499;-74
2023/03/06 11:09:29;;;;;;;6.95;3.65;;;19.70;50.60;;;;;;6248205;22;20393;-75
2023/03/06 11:12:24;;;;;;;9.57;3.63;;;19.70;50.50;;;;;;6254435;22;20000;-71
2023/03/06 11:15:13;;;;;;;14.52;3.67;;;19.80;50.70;;;;;;6285738;22;20004;-72
2023/03/06 11:18:07;;;;;;;7.55;3.30;;;19.80;50.90;;;;;;6270122;22;20011;-72
2023/03/06 11:20:41;;;;;;;8.00;3.50;;;19.90;51.20;;;;;;6252883;22;20026;-72
2023/03/06 11:23:41;;;;;;;10.23;3.55;;;19.90;51.30;;;;;;6280814;22;20014;-74
2023/03/06 11:26:15;;;;;;;7.03;3.55;;;19.90;51.50;;;;;;6276689;22;20035;-75
2023/03/06 11:28:47;;;;;;;10.77;3.67;;;19.90;51.70;;;;;;6275606;22;20004;-74
2023/03/06 11:31:15;;;;;;;8.07;3.65;;;19.90;51.70;;;;;;6249255;22;20022;-74
2023/03/06 11:34:09;;;;;;;6.90;3.38;;;19.90;51.90;;;;;;6223251;22;20349;-75
2023/03/06 11:37:27;;;;;;;8.70;3.50;;;19.90;52.10;;;;;;6272923;22;20080;-75
2023/03/06 11:40:05;;;;;;;8.63;3.22;;;20.00;52.30;;;;;;6255401;22;20012;-74
2023/03/06 11:42:42;;;;;;;9.02;3.00;;;19.90;52.40;;;;;;6247643;22;20011;-74
2023/03/06 11:45:36;;;;;;;6.00;3.25;;;19.90;52.50;;;;;;6275105;22;20068;-75
2023/03/06 11:48:13;;;;;;;5.78;3.05;;;19.90;52.70;;;;;;6274343;22;20027;-75
2023/03/06 11:50:51;;;;;;;10.15;3.70;;;19.90;52.80;;;;;;6250897;22;20027;-74
2023/03/06 11:53:27;;;;;;;8.70;3.58;;;19.90;52.90;;;;;;6276722;22;20444;-75
2023/03/06 11:56:17;;;;;;;7.03;3.20;;;19.90;53.00;;;;;;6278101;22;20027;-75
2023/03/06 11:59:16;;;;;;;7.85;3.60;;;19.90;53.00;;;;;;6277393;22;20075;-75
2023/03/06 12:02:38;;;;;;;6.57;2.87;;;19.90;53.20;;;;;;6249574;22;20014;-75
2023/03/06 12:05:22;;;;;;;6.22;3.28;;;19.90;53.30;;;;;;6181693;23;20251;-75
2023/03/06 12:08:11;;;;;;;7.50;3.42;;;19.90;53.30;;;;;;6275802;22;20453;-75
2023/03/06 12:10:44;;;;;;;7.18;3.40;;;19.90;53.40;;;;;;6276705;22;20004;-75
2023/03/06 12:13:34;;;;;;;7.80;3.50;;;20.00;53.60;;;;;;6249386;22;20080;-75
2023/03/06 12:16:17;;;;;;;6.45;3.35;;;19.90;53.60;;;;;;6276687;22;20011;-75
2023/03/06 12:19:05;;;;;;;9.60;3.65;;;19.90;53.60;;;;;;6275849;22;20003;-75
2023/03/06 12:21:50;;;;;;;6.35;3.58;;;19.90;53.70;;;;;;6276316;22;20004;-75
2023/03/06 12:24:50;;;;;;;7.88;3.40;;;19.90;53.80;;;;;;6249572;22;20012;-75
2023/03/06 12:28:03;;;;;;;8.73;3.30;;;19.90;53.90;;;;;;6257361;22;20014;-74
2023/03/06 12:31:01;;;;;;;6.50;3.00;;;19.90;54.10;;;;;;6182184;23;20582;-75
2023/03/06 12:33:45;;;;;;;6.68;3.40;;;19.90;54.10;;;;;;6276556;22;20078;-75
2023/03/06 12:36:25;;;;;;;5.82;3.20;;;19.90;54.20;;;;;;6276129;22;20008;-75
2023/03/06 12:39:12;;;;;;;5.95;3.47;;;19.90;54.30;;;;;;6275623;22;20015;-76
2023/03/06 12:41:58;;;;;;;6.28;3.50;;;19.90;54.40;;;;;;6276636;22;20425;-74
2023/03/06 12:44:32;;;;;;;7.60;3.63;;;19.90;54.40;;;;;;6276055;22;20452;-74
2023/03/06 12:47:03;;;;;;;5.93;3.20;;;19.90;54.40;;;;;;6275987;22;20029;-74
2023/03/06 12:49:33;;;;;;;5.22;2.92;;;19.90;54.50;;;;;;6249028;22;20004;-75
2023/03/06 12:52:00;;;;;;;6.28;3.38;;;19.90;54.60;;;;;;6275852;22;20455;-75
2023/03/06 12:54:29;;;;;;;7.40;3.60;;;19.90;54.60;;;;;;6276580;22;20004;-74
2023/03/06 12:56:57;;;;;;;7.38;3.17;;;19.90;54.70;;;;;;6248828;22;20012;-74